createdAt,value
2022-08-25T00:00:32.639Z,85.28
2022-08-25T00:05:33.370Z,87.17
2022-08-25T00:10:29.584Z,86.02
2022-08-25T00:15:29.468Z,84.37
2022-08-25T00:20:30.212Z,83.29
2022-08-25T00:25:29.322Z,84.57
2022-08-25T00:30:29.215Z,84.88
2022-08-25T00:35:29.244Z,85.72
2022-08-25T00:40:29.148Z,87.17
2022-08-25T00:45:29.065Z,85.96
2022-08-25T00:50:29.050Z,85.62
2022-08-25T00:55:28.927Z,86.66
2022-08-25T01:00:31.864Z,85.02
2022-08-25T01:05:28.772Z,87.51
2022-08-25T01:10:28.686Z,87.62
2022-08-25T01:15:28.653Z,87.51
2022-08-25T01:20:29.572Z,85.66
2022-08-25T01:25:28.471Z,85.22
2022-08-25T01:30:28.455Z,85.66
2022-08-25T01:35:28.320Z,86.10
2022-08-25T01:40:28.346Z,86.75
2022-08-25T01:45:28.943Z,86.91
2022-08-25T01:50:28.170Z,87.21
2022-08-25T01:55:28.116Z,87.35
2022-08-25T02:00:31.136Z,87.25
2022-08-25T02:05:27.928Z,88.81
2022-08-25T02:10:27.885Z,85.36
2022-08-25T02:15:27.813Z,85.80
2022-08-25T02:20:27.786Z,86.10
2022-08-25T02:25:27.673Z,86.10
2022-08-25T02:30:27.909Z,85.60
2022-08-25T02:35:27.550Z,86.24
2022-08-25T02:40:27.772Z,87.60
2022-08-25T02:45:27.421Z,87.70
2022-08-25T02:50:27.438Z,87.70
2022-08-25T02:55:27.250Z,88.60
2022-08-25T03:00:30.239Z,86.10
2022-08-25T03:05:27.198Z,87.60
2022-08-25T03:10:27.183Z,85.00
2022-08-25T03:15:27.126Z,85.60
2022-08-25T03:20:27.001Z,86.58
2022-08-25T03:25:26.966Z,85.84
2022-08-25T03:30:26.886Z,87.19
2022-08-25T03:35:26.753Z,88.14
2022-08-25T03:40:26.959Z,87.74
2022-08-25T03:45:34.666Z,88.45
2022-08-25T03:50:34.021Z,87.74
2022-08-25T03:55:26.678Z,86.24
2022-08-25T04:00:29.580Z,86.93
2022-08-25T04:05:26.775Z,88.48
2022-08-25T04:10:26.298Z,87.84
2022-08-25T04:15:28.514Z,86.22
2022-08-25T04:20:26.205Z,88.04
2022-08-25T04:25:33.951Z,85.58
2022-08-25T04:30:33.500Z,84.74
2022-08-25T04:35:26.069Z,86.29
2022-08-25T04:40:28.819Z,85.74
2022-08-25T04:45:25.910Z,83.81
2022-08-25T04:50:26.106Z,81.32
2022-08-25T04:55:25.845Z,79.03
2022-08-25T05:00:28.678Z,77.69
2022-08-25T05:05:25.613Z,76.81
2022-08-25T05:10:25.555Z,73.16
2022-08-25T05:15:25.484Z,71.53
2022-08-25T05:20:25.389Z,70.96
2022-08-25T05:25:25.335Z,69.82
2022-08-25T05:30:25.308Z,71.23
2022-08-25T05:35:25.263Z,70.42
2022-08-25T05:40:25.267Z,68.86
2022-08-25T05:45:25.108Z,66.77
2022-08-25T05:50:24.961Z,64.98
2022-08-25T05:55:32.738Z,64.88
2022-08-25T06:00:27.825Z,64.06
2022-08-25T06:05:24.761Z,64.18
2022-08-25T06:10:24.953Z,61.15
2022-08-25T06:15:24.619Z,60.72
2022-08-25T06:20:25.435Z,58.65
2022-08-25T06:25:24.560Z,59.45
2022-08-25T06:30:28.820Z,58.53
2022-08-25T06:35:24.497Z,59.45
2022-08-25T06:40:24.797Z,61.62
2022-08-25T06:45:24.246Z,58.92
2022-08-25T06:50:24.228Z,59.42
2022-08-25T06:55:24.162Z,60.02
2022-08-25T07:00:30.625Z,60.67
2022-08-25T07:05:33.521Z,63.43
2022-08-25T07:10:24.963Z,62.68
2022-08-25T07:15:23.837Z,61.86
2022-08-25T07:25:23.734Z,61.30
2022-08-25T07:30:23.795Z,61.80
2022-08-25T07:35:24.126Z,61.34
2022-08-25T07:40:23.712Z,61.05
2022-08-25T07:45:23.549Z,62.46
2022-08-25T07:50:23.549Z,62.76
2022-08-25T07:55:23.501Z,61.91
2022-08-25T08:00:26.397Z,61.35
2022-08-25T08:05:31.407Z,61.85
2022-08-25T08:10:54.235Z,62.44
2022-08-25T08:15:24.105Z,62.96
2022-08-25T08:20:23.698Z,64.08
2022-08-25T08:25:27.227Z,64.61
2022-08-25T08:30:23.708Z,64.01
2022-08-25T08:35:22.940Z,67.01
2022-08-25T08:40:22.793Z,66.35
2022-08-25T08:45:23.130Z,65.95
2022-08-25T08:50:27.739Z,64.31
2022-08-25T08:55:23.805Z,64.18
2022-08-25T09:00:25.644Z,62.34
2022-08-25T09:06:40.259Z,61.08
2022-08-25T09:11:47.541Z,59.55
2022-08-25T09:16:40.202Z,59.67
2022-08-25T09:21:40.002Z,59.05
2022-08-25T09:26:39.789Z,59.34
2022-08-25T09:31:39.754Z,59.05
2022-08-25T09:36:39.782Z,59.25
2022-08-25T09:41:39.731Z,57.74
2022-08-25T09:46:39.522Z,57.78
2022-08-25T09:51:42.959Z,56.84
2022-08-25T09:56:42.464Z,55.11
2022-08-25T10:01:39.446Z,56.80
2022-08-25T10:06:39.277Z,55.88
2022-08-25T10:11:39.198Z,56.45
2022-08-25T10:16:39.184Z,56.05
2022-08-25T10:21:39.088Z,54.55
2022-08-25T10:26:46.876Z,54.84
2022-08-25T10:31:41.339Z,55.58
2022-08-25T10:36:38.995Z,55.91
2022-08-25T10:41:39.020Z,57.78
2022-08-25T10:46:38.779Z,54.87
2022-08-25T10:51:46.686Z,52.95
2022-08-25T10:56:41.729Z,52.06
2022-08-25T11:01:43.755Z,55.68
2022-08-25T11:06:40.456Z,53.99
2022-08-25T11:11:38.581Z,53.34
2022-08-25T11:16:38.534Z,53.76
2022-08-25T11:21:38.274Z,53.54
2022-08-25T11:26:38.312Z,53.64
2022-08-25T11:31:38.196Z,52.33
2022-08-25T11:36:38.194Z,52.85
2022-08-25T11:41:38.001Z,53.14
2022-08-25T11:46:38.014Z,52.14
2022-08-25T11:51:37.863Z,52.65
2022-08-25T11:56:40.855Z,52.06
2022-08-25T12:01:37.954Z,52.36
2022-08-25T12:06:37.764Z,51.42
2022-08-25T12:11:37.622Z,50.21
2022-08-25T12:16:44.687Z,50.44
2022-08-25T12:21:37.559Z,51.32
2022-08-25T12:26:37.494Z,50.14
2022-08-25T12:31:37.404Z,50.04
2022-08-25T12:36:45.148Z,49.07
2022-08-25T12:41:37.247Z,50.46
2022-08-25T12:46:37.285Z,47.64
2022-08-25T12:51:37.142Z,49.23
2022-08-25T12:56:40.151Z,50.63
2022-08-25T13:01:37.127Z,49.13
2022-08-25T13:06:36.999Z,46.83
2022-08-25T13:11:36.868Z,47.44
2022-08-25T13:16:37.014Z,47.83
2022-08-25T13:21:37.211Z,48.23
2022-08-25T13:26:36.938Z,48.52
2022-08-25T13:31:38.194Z,48.15
2022-08-25T13:36:37.698Z,48.05
2022-08-25T13:41:36.591Z,47.74
2022-08-25T13:46:44.342Z,46.71
2022-08-25T13:51:43.884Z,46.59
2022-08-25T13:56:41.217Z,45.78
2022-08-25T14:01:48.337Z,46.39
2022-08-25T14:06:37.342Z,45.25
2022-08-25T14:11:36.087Z,46.05
2022-08-25T14:16:36.152Z,45.25
2022-08-25T14:21:35.952Z,46.15
2022-08-25T14:26:36.969Z,46.56
2022-08-25T14:31:36.836Z,46.54
2022-08-25T14:36:35.972Z,46.56
2022-08-25T14:41:35.791Z,46.71
2022-08-25T14:46:35.820Z,46.49
2022-08-25T14:51:36.209Z,44.85
2022-08-25T14:56:43.090Z,45.62
2022-08-25T15:01:35.525Z,46.64
2022-08-25T15:06:35.414Z,47.13
2022-08-25T15:11:35.441Z,46.64
2022-08-25T15:16:35.490Z,47.47
2022-08-25T15:21:35.536Z,48.18
2022-08-25T15:26:35.259Z,47.27
2022-08-25T15:31:35.135Z,45.73
2022-08-25T15:36:35.096Z,45.59
2022-08-25T15:41:34.987Z,46.59
2022-08-25T15:46:34.982Z,46.69
2022-08-25T15:51:34.849Z,46.27
2022-08-25T15:56:38.007Z,47.79
2022-08-25T16:01:34.756Z,48.38
2022-08-25T16:06:34.648Z,47.67
2022-08-25T16:11:34.546Z,47.08
2022-08-25T16:16:34.585Z,47.47
2022-08-25T16:21:47.089Z,47.17
2022-08-25T16:27:46.082Z,48.57
2022-08-25T16:32:46.008Z,49.60
2022-08-25T16:39:16.439Z,49.01
2022-08-25T16:45:33.295Z,49.38
2022-08-25T16:50:34.519Z,50.32
2022-08-25T16:55:39.023Z,50.32
2022-08-25T17:00:34.188Z,50.83
2022-08-25T17:05:32.868Z,51.15
2022-08-25T17:10:32.871Z,51.35
2022-08-25T17:15:32.853Z,51.93
2022-08-25T17:20:32.705Z,52.06
2022-08-25T17:25:32.759Z,52.33
2022-08-25T17:30:32.692Z,52.45
2022-08-25T17:35:35.631Z,53.19
2022-08-25T17:40:32.461Z,54.40
2022-08-25T17:45:33.595Z,55.68
2022-08-25T17:50:32.293Z,54.72
2022-08-25T17:55:32.632Z,54.13
2022-08-25T18:00:32.122Z,55.12
2022-08-25T18:05:32.142Z,55.44
2022-08-25T18:10:32.086Z,56.06
2022-08-25T18:15:32.532Z,57.50
2022-08-25T18:20:32.251Z,58.42
2022-08-25T18:25:32.295Z,59.46
2022-08-25T18:30:32.903Z,59.69
2022-08-25T18:35:34.972Z,59.46
2022-08-25T18:40:32.063Z,61.63
2022-08-25T18:45:33.291Z,62.78
2022-08-25T18:50:31.463Z,62.48
2022-08-25T18:55:31.931Z,61.96
2022-08-25T19:00:31.898Z,62.26
2022-08-25T19:05:31.420Z,62.58
2022-08-25T19:10:31.411Z,62.05
2022-08-25T19:15:31.346Z,61.86
2022-08-25T19:20:31.049Z,60.71
2022-08-25T19:25:33.177Z,61.63
2022-08-25T19:30:31.111Z,62.02
2022-08-25T19:35:33.901Z,62.75
2022-08-25T19:40:30.908Z,62.95
2022-08-25T19:45:30.841Z,62.62
2022-08-25T19:50:30.676Z,63.64
2022-08-25T19:55:30.683Z,64.37
2022-08-25T20:00:30.566Z,65.09
2022-08-25T20:05:31.350Z,65.49
2022-08-25T20:10:30.461Z,65.56
2022-08-25T20:15:34.282Z,66.91
2022-08-25T20:20:32.459Z,67.21
2022-08-25T20:25:36.749Z,67.50
2022-08-25T20:30:31.204Z,67.38
2022-08-25T20:35:40.914Z,66.75
2022-08-25T20:40:30.242Z,67.57
2022-08-25T20:45:29.996Z,67.67
2022-08-25T20:50:29.884Z,67.77
2022-08-25T20:55:29.848Z,68.17
2022-08-25T21:00:29.784Z,67.87
2022-08-25T21:05:29.703Z,67.44
2022-08-25T21:10:29.598Z,68.66
2022-08-25T21:15:29.614Z,67.34
2022-08-25T21:20:29.618Z,67.94
2022-08-25T21:25:29.451Z,68.66
2022-08-25T21:30:29.404Z,67.21
2022-08-25T21:35:32.269Z,68.86
2022-08-25T21:40:29.238Z,69.89
2022-08-25T21:45:33.313Z,69.79
2022-08-25T21:50:30.178Z,69.59
2022-08-25T21:55:29.022Z,68.53
2022-08-25T22:00:29.031Z,68.13
2022-08-25T22:05:28.901Z,68.96
2022-08-25T22:10:28.926Z,69.59
2022-08-25T22:15:36.694Z,69.99
2022-08-25T22:20:28.873Z,71.34
2022-08-25T22:25:28.723Z,71.75
2022-08-25T22:30:29.597Z,72.14
2022-08-25T22:35:31.558Z,72.58
2022-08-25T22:40:28.517Z,74.33
2022-08-25T22:45:28.416Z,74.00
2022-08-25T22:50:28.278Z,72.77
2022-08-25T22:55:36.046Z,71.94
2022-08-25T23:00:28.133Z,73.21
2022-08-25T23:05:28.091Z,73.80
2022-08-25T23:10:28.070Z,75.57
2022-08-25T23:15:28.024Z,76.93
2022-08-25T23:20:27.891Z,77.27
2022-08-25T23:25:27.851Z,79.14
2022-08-25T23:30:27.720Z,80.27
2022-08-25T23:35:30.811Z,79.97
2022-08-25T23:40:27.666Z,82.01
2022-08-25T23:45:27.671Z,81.65
2022-08-25T23:50:27.441Z,82.99
2022-08-25T23:55:30.635Z,83.43
